Tiempo atmosférico en la estación meteorológica de Fuerteventura Aeropuerto, Las Palmas (25 m.)

Fecha
DESCASC
Temp. máxima en grados centígrados (hora)
DESCASC
Temp. mínima en grados centígrados (hora)
DESCASC
Temp. media en grados centígrados
DESCASC
Racha de viento máxima en m/sg (hora)
DESCASC
Velocidad máxima media en intervalos de 10 minutos(hora)
DESCASC
Precipitaciones diarias en mm
DESCASC
Precipitaciones de 00:00 a 06:00 en mm
DESCASC
Precipitaciones de 06:00 a 12:00 en mm
DESCASC
Precipitaciones de 12:00 a 18:00 en mm
DESCASC
Precipitaciones de 18:00 a 24:00 en mm
DESCASC
17-09-2017 25.6 (14:20) 21.8 (07:00) 23.7 12.5 (00:30) 10 (00:40) 0 0 0 0 0
16-09-2017 26.1 (13:20) 22.2 (06:30) 24.2 12.5 (06:30) 10 (22:30) 0 0 0 0 0
15-09-2017 26.8 (13:10) 23 (23:30) 24.9 13.89 (11:20) 10.56 (11:20) 0 0 0 0 0
14-09-2017 29.9 (12:40) 23.3 (00:00) 26.6 11.39 (21:10) 8.33 (22:20) 0 0 0 0 0
13-09-2017 26 (16:00) 19.9 (00:00) 22.9 6.67 (16:50) 5.28 (20:10) 0 0 0 0 0
12-09-2017 26.3 (14:10) 19.9 (00:00) 23.1 7.22 (09:10) 5.56 (09:30) 0 0 0 0 0
11-09-2017 29.6 (14:50) 21.2 (00:00) 25.4 13.33 (05:40) 10 (05:40) 0 0 0 0 0
10-09-2017 28.3 (16:20) 22 (00:00) 25.1 12.78 (04:10) 10.83 (04:10) 0 0 0 0 0
09-09-2017 27 (15:10) 21.6 (00:00) 24.3 12.5 (19:00) 10 (19:00) 0 0 0 0 0
08-09-2017 29.1 (16:00) 21.7 (00:00) 25.4 12.78 (16:10) 10 (16:20) 0 0 0 0 0
07-09-2017 27.1 (15:50) 23.1 (00:00) 25.1 11.39 (13:20) 8.89 (13:10) 0 0 0 0 0
06-09-2017 28.8 (16:10) 21.8 (00:00) 25.3 14.44 (17:20) 10.56 (17:40) 0 0 0 0 0
05-09-2017 27.6 (14:40) 21.8 (00:00) 24.7 13.89 (15:50) 11.39 (22:50) 0 0 0 0 0
04-09-2017 27.5 (15:40) 22.9 (00:00) 25.2 11.39 (02:10) 8.89 (02:30) 0 0 0 0 0
03-09-2017 27 (15:30) 23.3 (00:00) 25.1 9.17 (04:30) 7.22 (22:20) 0 0 0 0 0
02-09-2017 27.1 (14:20) 22.9 (00:00) 25 9.72 (00:10) 7.22 (05:00) 0 0 0 0 0
01-09-2017 28.4 (14:20) 22.6 (00:00) 25.5 14.44 (18:40) 10.28 (00:20) 0 0 0 0 0
31-08-2017 29.4 (14:30) 22.8 (00:00) 26.1 16.39 (20:40) 13.06 (18:30) 0 0 0 0 0
30-08-2017 28.3 (18:10) 22.5 (00:00) 25.4 15.28 (23:30) 11.11 (19:00) 0 0 0 0 0
29-08-2017 28.2 (17:00) 21.3 (00:00) 24.8 12.78 (17:00) 8.89 (18:40) 0 0 0 0 0
28-08-2017 27.3 (14:20) 22.8 (00:00) 25 11.39 (09:20) 8.89 (10:00) 0 0 0 0 0
27-08-2017 27.9 (16:00) 23.4 (00:00) 25.6 12.5 (16:40) 9.72 (16:40) 0 0 0 0 0
26-08-2017 32.8 (17:40) 23.5 (00:00) 28.1 12.5 (17:30) 9.72 (17:40) 0 0 0 0 0
25-08-2017 28.1 (17:50) 23.7 (00:00) 25.9 10.28 (21:30) 7.5 (21:40) 0 0 0 0 0
24-08-2017 29.8 (13:50) 22.6 (00:00) 26.2 9.72 (00:10) 7.5 (00:10) 0 0 0 0 0
23-08-2017 28.8 (03:30) 23.8 (00:00) 26.3 11.67 (15:30) 9.17 (15:30) 0 0 0 0 0
22-08-2017 35.1 (18:10) 23.9 (00:00) 29.5 11.39 (18:20) 7.78 (18:20) 0 0 0 0 0

Gráficas

Temp. máximas Temp. mínimas Temp. medias Precipitaciones Rachas de viento máximas Velocidades máximas media en intervalos de 10 minutos

Datos horarios

Fecha y hora oficial Temperatura (ºC) Velocidad del viento (km/h) Dirección del viento Racha (km/h) Dirección de racha Precipitación (mm) Presión (hPa) Tendencia (hPa) Humedad (%)
2017-09-20 23:00:00 22.6 23 Norte 33 Norte 0 1016.1 1.3 74
2017-09-20 22:00:00 22.9 26 Norte 32 Norte 0 1015.8 1.3 72
2017-09-20 21:00:00 23.2 26 Norte 37 Norte 0 1015 0.6 71
2017-09-20 20:00:00 24.1 28 Norte 35 Norte 0 1014.8 0.5 66
2017-09-20 19:00:00 24 22 Nordeste 35 Nordeste 0 1014.5 -0.1 74
2017-09-20 18:00:00 24.6 29 Nordeste 39 Nordeste 0 1014.4 -0.8 73
2017-09-20 17:00:00 25.4 27 Nordeste 35 Nordeste 0 1014.3 -1.6 69
2017-09-20 16:00:00 25.6 26 Nordeste 35 Nordeste 0 1014.6 -2.1 67
2017-09-20 15:00:00 26.1 26 Nordeste 35 Nordeste 0 1015.2 -2 65
2017-09-20 14:00:00 25.6 26 Nordeste 35 Nordeste 0 1015.9 -1.5 68
2017-09-20 13:00:00 25.7 25 Nordeste 32 Nordeste 0 1016.7 -0.3 67
2017-09-20 12:00:00 25.3 24 Nordeste 30 Nordeste 0 1017.2 0.3 68
2017-09-20 11:00:00 24.4 23 Nordeste 35 Nordeste 0 1017.4 1.2 71
2017-09-20 10:00:00 23.5 29 Nordeste 37 Norte 0 1017 1.3 74
2017-09-20 09:00:00 22.2 24 Norte 35 Norte 0 1016.9 1.5 81
2017-09-20 08:00:00 20.9 17 Norte 24 Norte 0 1016.2 0.6 84
2017-09-20 07:00:00 20.5 14 Norte 21 Norte 0 1015.7 0 80
2017-09-20 06:00:00 20.6 14 Norte 17 Norte 0 1015.4 -0.8 82
2017-09-20 05:00:00 21.1 12 Norte 26 Norte 0 1015.6 -1.5 84
2017-09-20 04:00:00 20.8 8 Norte 17 Norte 0 1015.7 -1.6 80
2017-09-20 03:00:00 21.2 10 Norte 15 Norte 0 1016.2 -1.6 84
2017-09-20 02:00:00 21.6 11 Norte 18 Norte 0 1017.1 -0.9 84
2017-09-20 01:00:00 22 15 Norte 21 Norte 0 1017.3 -0.6 83
2017-09-20 00:00:00 22.3 20 Norte 30 Nordeste 0 1017.8 0.3 84
2017-09-19 23:00:00 22.5 23 Nordeste 32 Nordeste 0 1018 0.9 85
2017-09-19 22:00:00 22.6 26 Nordeste 33 Norte 0 1017.9 0.8 84
2017-09-19 21:00:00 22.7 22 Norte 30 Norte 0 1017.5 0.4 82
2017-09-19 20:00:00 23 23 Norte 30 Norte 0 1017.1 -0.3 79
2017-09-19 19:00:00 23.8 23 Norte 33 Nordeste 0 1017.1 -0.4 76
2017-09-19 18:00:00 24.4 24 Nordeste 32 Nordeste 0 1017.1 -0.6 73
2017-09-19 17:00:00 24.8 21 Nordeste 28 Nordeste 0 1017.4 -0.9 72
2017-09-19 16:00:00 25 19 Nordeste 30 Nordeste 0 1017.5 -1.6 70
2017-09-19 15:00:00 25.5 23 Nordeste 30 Nordeste 0 1017.7 -1.6 68
2017-09-19 14:00:00 25.5 21 Nordeste 28 Nordeste 0 1018.3 -1.2 68
2017-09-19 13:00:00 25.1 22 Nordeste 32 Nordeste 0 1019.1 0.1 69
2017-09-19 12:00:00 24.7 22 Nordeste 32 Nordeste 0 1019.3 1.1 70
2017-09-19 11:00:00 24.2 20 Nordeste 28 Nordeste 0 1019.5 2.1 72
2017-09-19 10:00:00 23.4 19 Nordeste 33 Nordeste 0 1019 1.6 75
2017-09-19 09:00:00 22.2 27 Nordeste 39 Nordeste 0 1018.2 0.7 79
2017-09-19 08:00:00 21.5 28 Norte 39 Norte 0 1017.4 0 81
2017-09-19 07:00:00 21.6 30 Nordeste 39 Nordeste 0 1017.4 0 81
2017-09-19 06:00:00 21.6 28 Nordeste 37 Nordeste 0 1017.5 -0.4 81
2017-09-19 05:00:00 21.7 27 Nordeste 35 Nordeste 0 1017.4 -1.1 81
2017-09-19 04:00:00 21.8 26 Nordeste 37 Norte 0 1017.4 -1.3 81
2017-09-19 03:00:00 21.9 27 Nordeste 35 Nordeste 0 1017.9 -1.1 80
2017-09-19 02:00:00 22 26 Nordeste 33 Nordeste 0 1018.5 -0.6 81
2017-09-19 01:00:00 22 24 Nordeste 35 Nordeste 0 1018.7 0.1 81
2017-09-19 00:00:00 22 25 Nordeste 35 Nordeste 0 1019 0.8 81
2017-09-18 23:00:00 22 28 Nordeste 37 Nordeste 0 1019.1 1.2 81
2017-09-18 22:00:00 22 30 Nordeste 37 Nordeste 0 1018.6 0.8 80
2017-09-18 21:00:00 22.2 29 Nordeste 41 Nordeste 0 1018.2 0.5 79
2017-09-18 20:00:00 22.5 29 Nordeste 39 Norte 0 1017.9 0 77
2017-09-18 19:00:00 23.2 27 Nordeste 35 Nordeste 0 1017.8 -0.2 74
2017-09-18 18:00:00 23.9 26 Nordeste 35 Nordeste 0 1017.7 -0.8 71
2017-09-18 17:00:00 24.5 26 Nordeste 35 Nordeste 0 1017.9 -1.2 68
2017-09-18 16:00:00 24.8 26 Nordeste 35 Nordeste 0 1018 -1.5 67
2017-09-18 15:00:00 25.2 26 Nordeste 33 Nordeste 0 1018.5 -1 65
2017-09-18 14:00:00 25.3 25 Nordeste 35 Nordeste 0 1019.1 0.1 65
2017-09-18 13:00:00 24.7 26 Nordeste 39 Nordeste 0 1019.5 0.8 67
2017-09-18 12:00:00 24.4 30 Nordeste 42 Nordeste 0 1019.5 1.3 68
2017-09-18 11:00:00 24 34 Nordeste 42 Nordeste 0 1019 1.1 71
2017-09-18 10:00:00 23.1 33 Nordeste 41 Nordeste 0 1018.7 1.1 73
2017-09-18 09:00:00 22.1 31 Nordeste 41 Nordeste 0 1018.2 1 77
2017-09-18 08:00:00 22 32 Nordeste 41 Nordeste 0 1017.9 0.9 78
2017-09-18 07:00:00 21.8 32 Nordeste 41 Nordeste 0 1017.6 0.8 79
2017-09-18 06:00:00 21.7 30 Nordeste 41 Nordeste 0 1017.2 0 79
2017-09-18 05:00:00 21.8 30 Nordeste 39 Nordeste 0 1017 -0.3 79
2017-09-18 04:00:00 21.9 28 Nordeste 39 Norte 0 1016.8 -0.9 79
2017-09-18 03:00:00 22 32 Nordeste 39 Nordeste 0 1017.2 -0.7 79
2017-09-18 02:00:00 22 30 Nordeste 39 Nordeste 0 1017.3 -0.7 79
2017-09-18 01:00:00 22.1 28 Nordeste 37 Nordeste 0 1017.7 0.1 78
2017-09-18 00:00:00 22.2 27 Nordeste 39 Nordeste 0 1017.9 1.4 77
2017-09-17 23:00:00 22.3 25 Nordeste 37 Nordeste 0 1018 2 77
2017-09-17 22:00:00 22.3 26 Nordeste 37 Nordeste 0 1017.6 1.8 78
2017-09-17 21:00:00 22.4 30 Nordeste 39 Nordeste 0 1016.5 1 77
2017-09-17 20:00:00 22.7 31 Nordeste 39 Nordeste 0 1016 0.6 76
2017-09-17 19:00:00 23.3 29 Nordeste 41 Nordeste 0 1015.8 0.5 73
2017-09-17 18:00:00 23.9 27 Nordeste 37 Nordeste 0 1015.5 0.1 71
2017-09-17 17:00:00 24.6 30 Nordeste 41 Nordeste 0 1015.4 -0.1 68
2017-09-17 16:00:00 25.1 30 Nordeste 39 Nordeste 0 1015.3 -0.7 67
2017-09-17 15:00:00 25.2 28 Nordeste 41 Nordeste 0 1015.4 -0.7 67
2017-09-17 14:00:00 25.4 31 Nordeste 39 Nordeste 0 1015.5 -0.8 65
2017-09-17 13:00:00 25 30 Nordeste 42 Nordeste 0 1016 0.1 67
2017-09-17 12:00:00 24.4 33 Nordeste 41 Nordeste 0 1016.1 0.9 68
2017-09-17 11:00:00 23.9 30 Nordeste 41 Nordeste 0 1016.3 1.6 70
2017-09-17 10:00:00 23 32 Nordeste 42 Nordeste 0 1015.9 1.7 74
2017-09-17 09:00:00 22.5 29 Nordeste 42 Nordeste 0 1015.2 1.3 76
2017-09-17 08:00:00 22 31 Nordeste 42 Nordeste 0 1014.7 1 78
2017-09-17 07:00:00 21.9 28 Nordeste 41 Nordeste 0 1014.2 0.9 78
2017-09-17 06:00:00 21.9 29 Nordeste 39 Nordeste 0 1013.9 -0.1 79
2017-09-17 05:00:00 22.1 31 Nordeste 42 Nordeste 0 1013.7 -0.3 79
2017-09-17 04:00:00 22.1 32 Nordeste 41 Nordeste 0 1013.3 -0.9 79
2017-09-17 03:00:00 22.2 28 Nordeste 41 Nordeste 0 1014 -0.5 78
2017-09-17 02:00:00 22.3 33 Nordeste 41 Nordeste 0 1014 -0.4 79
2017-09-17 01:00:00 22.4 32 Nordeste 45 Nordeste 0 1014.2 0.2 79
2017-09-17 00:00:00 22.5 30 Nordeste 41 Nordeste 0 1014.5 -- 79
2017-09-16 23:00:00 22.5 31 Nordeste 45 Nordeste 0 1014.4 2.1 78
2017-09-16 22:00:00 22.6 34 Nordeste 45 Nordeste 0 1014 2 79
2017-09-16 21:00:00 22.6 32 Nordeste 42 Nordeste 0 -- -- 79
2017-09-16 20:00:00 22.9 33 Nordeste 42 Nordeste 0 1012.3 0.4 79
2017-09-16 19:00:00 23.6 29 Nordeste 42 Nordeste 0 1012 0.2 77
2017-09-16 18:00:00 24.4 31 Nordeste 45 Nordeste 0 1012.1 0.1 73
2017-09-16 17:00:00 25 35 Nordeste 45 Nordeste 0 1011.9 -0.8 70
2017-09-16 16:00:00 25.5 33 Nordeste 41 Nordeste 0 1011.8 -1.1 68
2017-09-16 15:00:00 25.8 32 Nordeste 41 Nordeste 0 1012 -1.4 67
2017-09-16 14:00:00 25.7 32 Nordeste 42 Norte 0 1012.7 -0.8 67
2017-09-16 13:00:00 25.8 33 Nordeste 42 Nordeste 0 1012.9 -0.2 67
2017-09-16 12:00:00 25.2 33 Nordeste 42 Nordeste 0 1013.4 1 70
2017-09-16 11:00:00 24.4 29 Nordeste 39 Nordeste 0 1013.5 2 74
2017-09-16 10:00:00 22.9 29 Nordeste 37 Nordeste 0 1013.1 2 80
2017-09-16 09:00:00 22.7 30 Nordeste 39 Nordeste 0 1012.4 1.6 82
2017-09-16 08:00:00 22.4 29 Nordeste 42 Norte 0 1011.5 0.9 83
2017-09-16 07:00:00 22.3 26 Norte 45 Nordeste 0 1011.1 0.2 83
2017-09-16 06:00:00 22.4 33 Nordeste 42 Nordeste 0 1010.8 -0.5 83
2017-09-16 05:00:00 22.5 30 Nordeste 41 Nordeste 0 1010.6 -1 84
2017-09-16 04:00:00 22.5 27 Nordeste 39 Nordeste 0 1010.9 -1.5 84
2017-09-16 03:00:00 22.6 26 Nordeste 35 Nordeste 0 1011.3 -1.1 85
2017-09-16 02:00:00 22.8 23 Nordeste 37 Nordeste 0 1011.6 -0.7 86
2017-09-16 01:00:00 23 24 Nordeste 33 Nordeste 0 1012.4 0.1 86
2017-09-16 00:00:00 23.1 26 Nordeste 39 Nordeste 0 1012.4 0.8 87
2017-09-15 23:00:00 23.1 25 Norte 35 Norte 0 1012.3 0.9 87
2017-09-15 22:00:00 23.2 20 Norte 30 Norte 0 1012.3 0.7 86
2017-09-15 21:00:00 23.4 22 Nordeste 35 Norte 0 1011.6 -0.7 86
2017-09-15 20:00:00 23.5 32 Norte 42 Norte 0 1011.4 -1.5 85
2017-09-15 19:00:00 24 29 Norte 37 Norte 0 1011.6 -0.2 84
2017-09-15 18:00:00 24.2 26 Nordeste 37 Nordeste 0 1012.3 0.4 82
2017-09-15 17:00:00 25 19 Nordeste 39 Norte 0 1012.9 0.3 79
2017-09-15 16:00:00 25.2 26 Norte 33 Norte 0 1011.8 0 76
2017-09-15 15:00:00 25.8 23 Norte 37 Norte 0 1011.9 -0.8 73
2017-09-15 14:00:00 25.6 17 Nordeste 46 Norte 0 1012.6 -0.2 72
2017-09-15 13:00:00 26.4 36 Norte 50 Norte 0 1011.8 -0.3 70
2017-09-15 12:00:00 25.5 31 Norte 50 Norte 0 1012.7 1.8 77
2017-09-15 11:00:00 25.8 29 Norte 41 Norte 0 1012.8 1.2 74
2017-09-15 10:00:00 24.9 28 Norte 45 Norte 0 1012.1 1.2 77
2017-09-15 09:00:00 24.6 23 Norte 30 Norte 0 1010.9 0.4 77
2017-09-15 08:00:00 25.1 13 Nordeste 32 Norte 0 1011.6 1.5 67
2017-09-15 07:00:00 25 13 Norte 35 Nordeste 0 1010.9 0.2 65
2017-09-15 06:00:00 25.3 24 Norte 41 Norte 0 1010.5 -1.7 54
2017-09-15 05:00:00 24.3 31 Norte 39 Norte 0 1010.1 -2.8 71
2017-09-15 04:00:00 24.3 25 Norte 32 Norte 0 1010.7 -2.5 72
2017-09-15 03:00:00 24.4 15 Norte 22 Norte 0 1012.2 -1.5 72
2017-09-15 02:00:00 24.3 12 Norte -- -- -- 1012.9 -0.9 78
2017-09-15 01:00:00 24.3 13 Norte 32 Norte 0 1013.2 -0.2 79
2017-09-15 00:00:00 24.5 17 Norte 28 Nordeste 0 1013.7 0.5 79
2017-09-14 23:00:00 24.4 20 Norte 39 Norte 0 1013.8 0.9 82
2017-09-14 22:00:00 24.4 26 Norte 41 Norte 0 1013.4 0.9 85
2017-09-14 21:00:00 24.6 27 Norte 35 Norte 0 1013.2 1.2 85
2017-09-14 20:00:00 25.3 24 Norte 33 Norte 0 1012.9 0.6 78
2017-09-14 19:00:00 26.6 16 Nordeste 30 Norte 0 1012.5 0.1 71
2017-09-14 18:00:00 27.2 20 Nordeste 37 Norte 0 1012 -0.7 66
2017-09-14 17:00:00 27.2 25 Norte 35 Norte 0 1012.3 -0.9 66
2017-09-14 16:00:00 28.1 26 Norte 35 Norte 0 1012.4 -1.3 63
2017-09-14 15:00:00 27.3 29 Nordeste 37 Nordeste 0 1012.7 -1.3 68
2017-09-14 14:00:00 28.4 27 Norte 35 Norte 0 1013.2 -0.8 61
2017-09-14 13:00:00 29.4 25 Norte 35 Nordeste 0 1013.7 0.2 54
2017-09-14 12:00:00 29.1 25 Norte 35 Nordeste 0 1014 0.9 52
2017-09-14 11:00:00 29.2 22 Nordeste 32 Norte 0 1014 1.6 50
2017-09-14 10:00:00 28.3 18 Nordeste 26 Norte 0 1013.5 1.4 50
2017-09-14 09:00:00 26.1 10 Norte 21 Norte 0 1013.1 1.3 58
2017-09-14 08:00:00 24.1 17 Norte 26 Norte 0 1012.4 0.2 62
2017-09-14 07:00:00 23.4 16 Norte 22 Norte 0 1012.1 -0.7 68
2017-09-14 06:00:00 23.6 14 Norte 22 Norte 0 1011.8 -1.6 69
2017-09-14 05:00:00 23.5 15 Norte 26 Norte 0 1012.2 -1.7 71
2017-09-14 04:00:00 23.8 21 Norte 30 Norte 0 1012.8 -1.8 77
2017-09-14 03:00:00 23.8 19 Norte 26 Norte 0 1013.4 -1.9 79
2017-09-14 02:00:00 23.8 17 Norte -- -- -- 1013.9 -1.4 76
2017-09-14 01:00:00 23.8 12 Norte 18 Norte 0 1014.6 -0.4 76
2017-09-14 00:00:00 23.9 15 Norte 18 Norte 0 1015.3 0.5 75
2017-09-13 23:00:00 24.2 15 Norte 21 Norte 0 1015.3 0.6 69
2017-09-13 22:00:00 24.8 15 Norte 24 Norte 0 1015 0 71
2017-09-13 21:00:00 24.8 17 Norte 24 Norte 0 1014.8 0.7 73
2017-09-13 20:00:00 24.5 19 Norte 22 Norte 0 1014.7 0.7 79
2017-09-13 19:00:00 25.2 12 Nordeste 22 Nordeste 0 1015 1.2 79
2017-09-13 18:00:00 25.4 17 Nordeste 22 Nordeste 0 1014.1 -0.7 77
2017-09-13 17:00:00 25.8 16 Nordeste 24 Este 0 1014 -1.2 75
2017-09-13 16:00:00 25.8 15 Nordeste 21 Nordeste 0 1013.8 -1.8 72
2017-09-13 15:00:00 25.4 13 Este 22 Este 0 1014.8 -0.9 72
2017-09-13 14:00:00 25.4 14 Este 21 Este 0 1015.2 -0.2 72
2017-09-13 13:00:00 25.4 12 Nordeste 21 Nordeste 0 1015.6 0.6 72
2017-09-13 12:00:00 24.9 10 Nordeste 22 Este 0 1015.7 1.4 74
2017-09-13 11:00:00 24.6 10 Este 17 Este 0 1015.4 1.8 75
2017-09-13 10:00:00 24 5 Nordeste 11 Nordeste 0 1015 1.7 78
2017-09-13 09:00:00 21.9 0 Calma 17 Oeste 0 1014.3 1.8 79
2017-09-13 08:00:00 20.1 6 Noroeste 15 Oeste 0 1013.6 1.2 82
2017-09-13 07:00:00 20.5 5 Norte 15 Noroeste 0 1013.3 0.6 80
2017-09-13 06:00:00 20.1 11 Noroeste 13 Noroeste 0 1012.5 -0.6 81
2017-09-13 05:00:00 20.6 5 Noroeste 11 Noroeste 0 1012.4 -1.2 81
2017-09-13 04:00:00 21 5 Oeste 13 Oeste 0 1012.7 -0.9 81
2017-09-13 03:00:00 21.7 4 Oeste 8 Sudoeste 0 1013.1 -0.2 78
2017-09-13 02:00:00 22.2 3 Sur -- -- -- 1013.6 -0.3 80
2017-09-13 01:00:00 23 0 Calma 2 Sur 0 1013.6 0.4 79
2017-09-13 00:00:00 23.3 2 Sudoeste 9 Sudeste 0 1013.3 0.8 79
2017-09-12 23:00:00 23.6 5 Sudeste 11 Sur 0 1013.9 2.2 79
2017-09-12 22:00:00 23.5 0 Calma 5 Sudeste 0 1013.2 1.4 78
2017-09-12 21:00:00 23.7 4 Sudeste 8 Sudeste 0 1012.5 0.7 78
2017-09-12 20:00:00 24.1 3 Sur 8 Este 0 1011.7 0.2 76
2017-09-12 19:00:00 24.5 5 Sudeste 15 Sudeste 0 1011.8 0.3 75
2017-09-12 18:00:00 24.9 10 Sudeste 17 Sudeste 0 1011.8 -0.4 74
2017-09-12 17:00:00 25.4 10 Este 17 Sudeste 0 1011.5 -0.7 72
2017-09-12 16:00:00 25.9 10 Sudeste 18 Este 0 1011.5 -1 69
2017-09-12 15:00:00 26.1 13 Este 21 Este 0 1012.2 -0.6 66
2017-09-12 14:00:00 25.9 14 Este 18 Este 0 1012.2 -0.5 65
2017-09-12 13:00:00 25.6 12 Este 17 Este 0 1012.5 0.1 66
2017-09-12 12:00:00 25.1 12 Este 21 Nordeste 0 1012.8 1.1 68
2017-09-12 11:00:00 24.8 16 Nordeste 22 Nordeste 0 1012.7 1.3 69
2017-09-12 10:00:00 23.8 16 Norte 26 Norte 0 1012.4 1.3 71
2017-09-12 09:00:00 22.5 15 Norte 22 Norte 0 1011.7 0.9 77
2017-09-12 08:00:00 20.1 5 Noroeste 22 Oeste 0 1011.4 0.7 80
2017-09-12 07:00:00 20 8 Noroeste 13 Noroeste 0 1011.1 0.1 79
2017-09-12 06:00:00 19.9 9 Oeste 13 Oeste 0 1010.8 -0.3 79
2017-09-12 05:00:00 20.5 8 Oeste 13 Oeste 0 1010.7 -1.3 78
2017-09-12 04:00:00 20.6 6 Oeste 13 Noroeste 0 1011 -1.1 75
2017-09-12 03:00:00 21.4 11 Noroeste 15 Noroeste 0 1011.1 -1.1 74
2017-09-12 02:00:00 21.9 12 Noroeste -- -- -- 1012 -0.7 75
2017-09-12 01:00:00 22.3 13 Noroeste 22 Norte 0 1012.1 -0.1 74
2017-09-12 00:00:00 22.6 17 Norte 24 Norte 0 1012.2 0.6 73
2017-09-11 23:00:00 23 18 Norte 28 Noroeste 0 1012.7 1.5 71
2017-09-11 22:00:00 23.4 18 Norte 30 Norte 0 1012.2 1.4 68
2017-09-11 21:00:00 23.8 20 Norte 33 Noroeste 0 1011.6 1.1 64
2017-09-11 20:00:00 24.7 24 Norte 37 Norte 0 1011.2 0.6 60
2017-09-11 19:00:00 26.2 26 Norte 41 Norte 0 1010.8 -0.1 54
2017-09-11 18:00:00 27.7 28 Norte 42 Norte 0 1010.5 -0.5 49
2017-09-11 17:00:00 26.3 26 Nordeste 37 Nordeste 0 1010.6 -0.9 68
2017-09-11 16:00:00 27.4 24 Nordeste 42 Norte 0 1010.9 -1.2 63
2017-09-11 15:00:00 29.2 27 Norte 45 Norte 0 1011 -1.4 44
2017-09-11 14:00:00 28.8 27 Norte 39 Nordeste 0 1011.5 -0.8 47
2017-09-11 13:00:00 27.3 25 Nordeste 35 Nordeste 0 1012.1 0.1 57
2017-09-11 12:00:00 26.6 25 Nordeste 35 Nordeste 0 1012.4 0.7 60
2017-09-11 11:00:00 25.9 26 Nordeste 35 Nordeste 0 1012.3 0.8 63
2017-09-11 10:00:00 25.3 26 Nordeste 35 Nordeste 0 1012 0.8 63
2017-09-11 09:00:00 24 20 Norte 26 Norte 0 1011.7 0.7 68
2017-09-11 08:00:00 22.1 15 Norte 26 Noroeste 0 1011.5 0.5 75
2017-09-11 07:00:00 21.9 15 Norte 30 Norte 0 1011.2 -0.1 82
2017-09-11 06:00:00 21.3 19 Norte 48 Norte 0 1011 -0.3 88
2017-09-11 05:00:00 21.9 20 Norte 41 Norte 0 1011 -1 80
2017-09-11 04:00:00 23.2 25 Norte 37 Norte 0 1011.3 -1.1 74
2017-09-11 03:00:00 23.1 27 Norte 45 Nordeste 0 1011.3 -1.4 71
2017-09-11 02:00:00 23.2 22 Norte -- -- -- 1012 -0.9 75
2017-09-11 01:00:00 23.5 30 Norte 45 Norte 0 1012.4 -0.5 74
2017-09-11 00:00:00 23.5 24 Norte 35 Norte 0 1012.7 0.4 72
2017-09-10 23:00:00 23.6 28 Norte 41 Norte 0 1012.9 0.7 73
2017-09-10 22:00:00 23.7 27 Norte 37 Norte 0 1012.9 0.5 69
2017-09-10 21:00:00 24.2 26 Norte 39 Norte 0 1012.3 -0.1 67
2017-09-10 20:00:00 24.8 31 Norte 46 Norte 0 1012.2 0 63
2017-09-10 19:00:00 25.9 29 Norte 46 Norte 0 1012.4 -0.1 58
2017-09-10 18:00:00 26.2 31 Norte 46 Norte 0 1012.4 -0.7 60
2017-09-10 17:00:00 27.2 30 Norte 42 Norte 0 1012.2 -1.7 55
2017-09-10 16:00:00 27.6 32 Nordeste 42 Nordeste 0 1012.5 -2 58
2017-09-10 15:00:00 27.6 25 Nordeste 41 Nordeste 0 1013.1 -1.5 57
2017-09-10 14:00:00 26.6 29 Nordeste 37 Nordeste 0 1013.9 -0.9 62
2017-09-10 13:00:00 25.9 26 Nordeste 35 Nordeste 0 1014.5 0.3 63
2017-09-10 12:00:00 25.7 27 Nordeste 39 Nordeste 0 1014.6 0.6 59
2017-09-10 11:00:00 24.8 24 Nordeste 41 Norte 0 1014.8 1.3 61
2017-09-10 10:00:00 24.5 29 Norte 45 Norte 0 1014.2 1.1 60
2017-09-10 09:00:00 23.3 26 Nordeste 41 Norte 0 1014 0.9 68
2017-09-10 08:00:00 22.6 33 Norte 42 Norte 0 1013.5 0 68
2017-09-10 07:00:00 22.7 33 Nordeste 46 Norte 0 1013.1 -0.7 71
2017-09-10 06:00:00 22.7 33 Nordeste 46 Norte 0 1013.1 -1.1 71
2017-09-10 05:00:00 22.5 32 Norte 46 Norte 0 1013.5 -1.4 70
2017-09-10 04:00:00 22.2 29 Norte 42 Nordeste 0 1013.8 -1.3 72
2017-09-10 03:00:00 22.2 23 Norte 41 Nordeste 0 1014.2 -1.2 74
2017-09-10 02:00:00 22.4 21 Norte -- -- -- 1014.9 -0.7 75
2017-09-10 01:00:00 22.1 22 Norte 32 Norte 0 1015.1 0.2 77
2017-09-10 00:00:00 22.6 24 Norte 35 Nordeste 0 1015.4 1.2 79
2017-09-09 23:00:00 22.9 23 Norte 41 Nordeste 0 1015.6 2 77
2017-09-09 22:00:00 23.3 27 Nordeste 39 Norte 0 1014.9 1.3 78
2017-09-09 21:00:00 23.7 30 Norte 42 Nordeste 0 1014.2 0.6 78
2017-09-09 20:00:00 23.8 35 Nordeste 42 Nordeste 0 1013.6 0 81
2017-09-09 19:00:00 24.7 36 Nordeste 45 Nordeste 0 1013.6 0 77
2017-09-09 18:00:00 25.6 30 Nordeste 39 Nordeste 0 1013.6 -0.4 73
2017-09-09 17:00:00 26.3 29 Nordeste 41 Nordeste 0 1013.6 -0.8 71
2017-09-09 16:00:00 26.6 33 Nordeste 41 Nordeste 0 1013.6 -1 71
2017-09-09 15:00:00 26.6 29 Nordeste 37 Nordeste 0 1014 -0.8 70
2017-09-09 14:00:00 26.4 25 Nordeste 32 Nordeste 0 1014.4 -0.4 70
2017-09-09 13:00:00 26.2 19 Nordeste 32 Nordeste 0 1014.6 0.1 71
2017-09-09 12:00:00 26.2 21 Nordeste 30 Nordeste 0 1014.8 1.5 72
2017-09-09 11:00:00 25.6 19 Nordeste 26 Nordeste 0 1014.8 2.1 73
2017-09-09 10:00:00 24.8 19 Nordeste 28 Norte 0 1014.5 2.3 76
2017-09-09 09:00:00 23.5 17 Norte 22 Norte 0 1013.3 1.5 76
2017-09-09 08:00:00 21.8 14 Norte 18 Norte 0 1012.7 1 83
2017-09-09 07:00:00 21.9 14 Norte 18 Norte 0 1012.2 0.3 83
2017-09-09 06:00:00 21.7 8 Norte 17 Norte 0 1011.8 -0.4 83
2017-09-09 05:00:00 22.6 13 Norte 24 Nordeste 0 1011.7 -1.2 85
2017-09-09 04:00:00 23 16 Norte 28 Nordeste 0 1011.9 -1.7 85
2017-09-09 03:00:00 23.1 20 Nordeste 30 Nordeste 0 1012.2 -1.3 86
2017-09-09 02:00:00 23.2 22 Nordeste -- -- -- 1012.9 -0.3 87
2017-09-09 01:00:00 23.5 19 Nordeste 26 Nordeste 0 1013.6 1.2 86
2017-09-09 00:00:00 23.5 19 Nordeste 26 Nordeste 0 1013.5 1.8 86
2017-09-08 23:00:00 23.6 19 Nordeste 28 Nordeste 0 1013.2 2 82
2017-09-08 22:00:00 24.2 22 Nordeste 32 Nordeste 0 1012.4 1.3 79
2017-09-08 21:00:00 25 21 Nordeste 33 Nordeste 0 1011.7 0.8 76
2017-09-08 20:00:00 26.2 25 Nordeste 33 Nordeste 0 1011.2 0 69
2017-09-08 19:00:00 27.9 24 Norte 35 Nordeste 0 1011.1 0 62
2017-09-08 18:00:00 27 26 Nordeste 35 Nordeste 0 1010.9 -0.4 72
2017-09-08 17:00:00 26.7 26 Nordeste 46 Nordeste 0 1011.2 -0.5 72
2017-09-08 16:00:00 28.9 27 Nordeste 37 Nordeste 0 1011.1 -1.1 63
2017-09-08 15:00:00 27.8 30 Nordeste 41 Nordeste 0 1011.3 -0.9 66
2017-09-08 14:00:00 26.7 28 Nordeste 39 Nordeste 0 1011.7 -1.5 72
2017-09-08 13:00:00 26.3 23 Nordeste 35 Nordeste 0 1012.2 -0.3 72
2017-09-08 12:00:00 26.1 29 Nordeste 37 Nordeste 0 1012.2 0.7 72
2017-09-08 11:00:00 25.1 8 Nordeste 18 Este 0 1013.2 2.4 73
2017-09-08 10:00:00 24.8 17 Nordeste 24 Nordeste 0 1012.5 2.2 75
2017-09-08 09:00:00 23.7 15 Nordeste 21 Nordeste 0 1011.5 1.5 78
2017-09-08 08:00:00 22 11 Norte 21 Norte 0 1010.8 0.9 77
2017-09-08 07:00:00 21.9 14 Norte 17 Norte 0 1010.3 0.4 74
2017-09-08 06:00:00 22 12 Norte 26 Norte 0 1010 -0.4 78
2017-09-08 05:00:00 22.3 19 Norte 26 Norte 0 1009.9 -1 81
2017-09-08 04:00:00 22.4 17 Norte 26 Norte 0 1009.9 -1.5 80
2017-09-08 03:00:00 22.7 20 Norte 24 Norte 0 1010.4 -1.4 81
2017-09-08 02:00:00 22.6 14 Norte -- -- -- 1010.9 -0.9 80
2017-09-08 01:00:00 22.9 14 Norte 26 Norte 0 1011.4 0.1 78
2017-09-08 00:00:00 23.2 20 Norte 28 Norte 0 1011.8 1 78
2017-09-07 23:00:00 23.5 21 Norte 30 Norte 0 1011.8 1.4 77
2017-09-07 22:00:00 23.9 22 Norte 30 Norte 0 1011.3 1 75
2017-09-07 21:00:00 24.2 22 Norte 33 Nordeste 0 1010.8 0.4 74
2017-09-07 20:00:00 24.2 25 Nordeste 35 Nordeste 0 1010.4 -0.2 83
2017-09-07 19:00:00 25 25 Nordeste 37 Nordeste 0 1010.3 -0.5 79
2017-09-07 18:00:00 25.6 28 Nordeste 37 Nordeste 0 1010.4 -0.8 74
2017-09-07 17:00:00 26.4 28 Nordeste 39 Nordeste 0 1010.6 -0.6 72
2017-09-07 16:00:00 26.6 28 Nordeste 37 Nordeste 0 1010.8 -0.7 70
2017-09-07 15:00:00 26.7 26 Nordeste 39 Nordeste 0 1011.2 -0.8 70
2017-09-07 14:00:00 26.6 31 Nordeste 41 Nordeste 0 1011.2 -0.8 70
2017-09-07 13:00:00 26.2 31 Nordeste 39 Nordeste 0 1011.5 -0.4 71
2017-09-07 12:00:00 26.1 30 Nordeste 39 Nordeste 0 1012 0.3 72
2017-09-07 11:00:00 25.4 26 Nordeste 33 Nordeste 0 1012 0.5 74
2017-09-07 10:00:00 24.4 24 Norte 35 Norte 0 1011.9 0.6 76
2017-09-07 09:00:00 23.6 24 Norte 33 Norte 0 1011.7 0.5 78
2017-09-07 08:00:00 23.1 23 Norte 32 Norte 0 1011.5 0.1 79
2017-09-07 07:00:00 23.3 21 Norte 32 Norte 0 1011.3 -0.4 78
2017-09-07 06:00:00 23.3 22 Norte 28 Norte 0 1011.2 -0.6 79
2017-09-07 05:00:00 23.5 18 Norte 30 Norte 0 1011.4 -0.9 81
2017-09-07 04:00:00 23.5 24 Norte 33 Norte 0 1011.7 -0.9 81
2017-09-07 03:00:00 23.5 21 Norte 32 Norte 0 1011.8 -1.1 81
2017-09-07 02:00:00 23.6 20 Norte 32 Norte 0 1012.3 -1 79
2017-09-07 01:00:00 23.3 16 Norte 26 Norte 0 1012.6 -0.5 78
2017-09-07 00:00:00 23.5 18 Norte 30 Norte 0 1012.9 0.4 78
2017-09-06 23:00:00 23.6 24 Norte 35 Norte 0 1013.3 1.2 78
2017-09-06 22:00:00 24 25 Norte 41 Norte 0 1013.1 1.1 76
2017-09-06 21:00:00 24.6 28 Norte 50 Norte 0 1012.5 0.2 74
2017-09-06 20:00:00 25.2 32 Norte 46 Norte 0 1012.1 -0.6 69
2017-09-06 19:00:00 26.5 36 Norte 48 Norte 0 1012 -0.8 63
2017-09-06 18:00:00 27.7 36 Norte 52 Norte 0 1012.3 -1 58
2017-09-06 17:00:00 28.1 33 Norte 48 Nordeste 0 1012.7 -1.1 57
2017-09-06 16:00:00 28.1 32 Nordeste 46 Nordeste 0 1012.8 -1.8 59
2017-09-06 15:00:00 27 30 Nordeste 42 Nordeste 0 1013.3 -1.9 67
2017-09-06 14:00:00 27.4 35 Nordeste 42 Nordeste 0 1013.8 -1.4 61
2017-09-06 13:00:00 26.8 32 Nordeste 41 Nordeste 0 1014.6 -0.4 62
2017-09-06 12:00:00 26.2 29 Nordeste 39 Nordeste 0 1015.2 0.6 64
2017-09-06 11:00:00 25.2 30 Nordeste 42 Norte 0 1015.2 0.6 64
2017-09-06 10:00:00 24.1 31 Norte 45 Norte 0 1015 0.6 66
2017-09-06 09:00:00 22.7 26 Norte 39 Norte 0 1014.6 0.2 72
2017-09-06 08:00:00 21.9 21 Norte 33 Norte 0 1014.6 0 75
2017-09-06 07:00:00 22.2 25 Norte 33 Norte 0 1014.4 -0.4 75
2017-09-06 06:00:00 22.3 23 Norte 32 Norte 0 1014.4 -0.9 75
2017-09-06 05:00:00 22.3 22 Norte 32 Norte 0 1014.6 -1 76
2017-09-06 04:00:00 22.2 23 Norte 33 Norte 0 1014.8 -1.3 77
2017-09-06 03:00:00 22.2 23 Norte 42 Norte 0 1015.3 -1 77
2017-09-06 02:00:00 22.5 27 Norte 37 Norte 0 1015.6 -0.8 76
2017-09-06 01:00:00 22.7 26 Norte 42 Norte 0 1016.1 -0.3 76
2017-09-06 00:00:00 22.9 35 Norte 48 Norte 0 1016.3 0.8 76
2017-09-05 23:00:00 23.5 40 Norte 50 Norte 0 1016.4 1.1 76
2017-09-05 22:00:00 23.8 32 Norte 48 Norte 0 1016.4 1.3 74
2017-09-05 21:00:00 24.3 34 Norte 48 Norte 0 1015.5 0.6 72
2017-09-05 20:00:00 25.6 36 Norte 45 Norte 0 1015.3 0.3 68
2017-09-05 19:00:00 26.9 35 Norte 45 Norte 0 1015.1 -0.1 66
2017-09-05 18:00:00 26.1 34 Nordeste 45 Nordeste 0 1014.9 -0.6 76
2017-09-05 17:00:00 26.8 31 Nordeste 46 Nordeste 0 1015 -0.9 73
2017-09-05 16:00:00 27.2 38 Nordeste 50 Nordeste 0 1015.2 -1.2 67
2017-09-05 15:00:00 27.3 35 Nordeste 46 Nordeste 0 1015.5 -0.7 66
2017-09-05 14:00:00 26.8 33 Nordeste 45 Nordeste 0 1015.9 -0.1 66
2017-09-05 13:00:00 27 33 Nordeste 42 Nordeste 0 1016.4 0.5 66
2017-09-05 12:00:00 26.5 31 Nordeste 41 Nordeste 0 1016.2 0.7 68
2017-09-05 11:00:00 25.5 32 Nordeste 45 Nordeste 0 1016 1 68
2017-09-05 10:00:00 24.1 35 Norte 42 Norte 0 1015.9 1.3 71
2017-09-05 09:00:00 22.4 33 Norte 42 Norte 0 1015.5 1.2 78
2017-09-05 08:00:00 21.9 25 Norte 42 Nordeste 0 1015 1 81
2017-09-05 07:00:00 21.9 28 Norte 42 Nordeste 0 1014.6 0.4 82
2017-09-05 06:00:00 22.1 35 Nordeste 45 Nordeste 0 1014.3 -0.1 83
2017-09-05 05:00:00 22.2 35 Nordeste 42 Norte 0 1014 -0.7 83
2017-09-05 04:00:00 22.6 31 Nordeste 39 Nordeste 0 1014.2 -1 84
2017-09-05 03:00:00 22.8 25 Norte 30 Norte 0 1014.4 -1.1 74
2017-09-05 02:00:00 23.3 26 Norte 33 Norte 0 1014.7 -0.9 73
2017-09-05 01:00:00 23.5 26 Norte 32 Norte 0 1015.2 0.1 70
2017-09-05 00:00:00 23.9 17 Norte 33 Norte 0 1015.5 0.9 66
2017-09-04 23:00:00 24.4 18 Norte 32 Norte 0 1015.6 1.6 68
2017-09-04 22:00:00 24.5 18 Norte 32 Nordeste 0 1015.1 1.3 74
2017-09-04 21:00:00 24.9 26 Nordeste 37 Nordeste 0 1014.6 0.8 63
2017-09-04 20:00:00 25.1 30 Nordeste 41 Nordeste 0 1014 0.2 63
2017-09-04 19:00:00 25.8 25 Nordeste 35 Nordeste 0 1013.8 0 71
2017-09-04 18:00:00 26.3 24 Nordeste 33 Norte 0 1013.8 -0.3 72
2017-09-04 17:00:00 26.9 24 Nordeste 35 Norte 0 1013.8 -0.5 69
2017-09-04 16:00:00 27.2 22 Nordeste 30 Norte 0 1013.8 -0.7 68
2017-09-04 15:00:00 27 23 Nordeste 35 Nordeste 0 1014.1 -0.6 69
2017-09-04 14:00:00 26.6 23 Nordeste 30 Nordeste 0 1014.3 -0.2 72
2017-09-04 13:00:00 26.4 19 Nordeste 26 Nordeste 0 1014.5 0.3 73
2017-09-04 12:00:00 26 21 Nordeste 32 Nordeste 0 1014.7 1 74
2017-09-04 11:00:00 25.4 23 Nordeste 30 Norte 0 1014.5 1.2 76
2017-09-04 10:00:00 24.4 26 Nordeste 32 Nordeste 0 1014.2 1.2 80
2017-09-04 09:00:00 23.6 25 Norte 35 Nordeste 0 1013.7 1.1 81
2017-09-04 08:00:00 23 26 Nordeste 37 Nordeste 0 1013.3 0.5 82
2017-09-04 07:00:00 23.2 28 Nordeste 37 Nordeste 0 1013 0.3 83
2017-09-04 06:00:00 23.3 27 Nordeste 35 Nordeste 0 1012.6 -0.5 82
2017-09-04 05:00:00 23.4 28 Nordeste 39 Nordeste 0 1012.8 -0.4 81
2017-09-04 04:00:00 23.2 30 Nordeste 39 Nordeste 0 1012.7 -1.2 83
2017-09-04 03:00:00 23.2 30 Nordeste 41 Nordeste 0 1013.1 -0.9 85
2017-09-04 02:00:00 23.4 29 Nordeste 37 Nordeste 0 1013.2 -1 86
2017-09-04 01:00:00 23.2 15 Norte 26 Norte 0 1013.9 0.3 82
2017-09-04 00:00:00 23.5 20 Norte 26 Norte 0 1014 0.8 78
2017-09-03 23:00:00 23.8 20 Norte 32 Norte 0 1014.2 1.2 77
2017-09-03 22:00:00 23.8 25 Norte 33 Norte 0 1013.6 0.6 78
2017-09-03 21:00:00 24 23 Nordeste 33 Nordeste 0 1013.2 0.3 82
2017-09-03 20:00:00 24.6 23 Nordeste 32 Nordeste 0 1013 -0.1 79
2017-09-03 19:00:00 25.2 24 Nordeste 32 Nordeste 0 1013 -0.6 74
2017-09-03 18:00:00 25.9 25 Nordeste 32 Nordeste 0 1012.9 -0.8 73
2017-09-03 17:00:00 26.6 22 Nordeste 28 Nordeste 0 1013.1 -0.9 69
2017-09-03 16:00:00 26.8 21 Nordeste 28 Nordeste 0 1013.6 -0.8 67
2017-09-03 15:00:00 26.5 21 Nordeste 28 Nordeste 0 1013.7 -1 68
2017-09-03 14:00:00 26.5 21 Nordeste 28 Nordeste 0 1014 -0.5 67
2017-09-03 13:00:00 26 19 Nordeste 28 Nordeste 0 1014.4 0.1 69
2017-09-03 12:00:00 24.8 19 Nordeste 32 Norte 0 1014.7 1 74
2017-09-03 11:00:00 24.3 23 Norte 30 Norte 0 1014.5 0.9 75
2017-09-03 10:00:00 23.7 21 Norte 30 Norte 0 1014.3 1 75
2017-09-03 09:00:00 23.5 21 Norte 28 Norte 0 1013.7 0.5 77
2017-09-03 08:00:00 23.4 19 Norte 33 Nordeste 0 1013.6 0.6 78
2017-09-03 07:00:00 23.5 24 Nordeste 32 Nordeste 0 1013.3 0.4 79
2017-09-03 06:00:00 23.6 22 Nordeste 30 Norte 0 1013.2 -0.1 78
2017-09-03 05:00:00 23.6 24 Norte 33 Nordeste 0 1013 -0.9 80
2017-09-03 04:00:00 24 22 Norte 30 Norte 0 1012.9 -1.1 80
2017-09-03 03:00:00 24.1 22 Norte 28 Norte 0 1013.3 -1.2 79
2017-09-03 02:00:00 24.1 20 Norte 24 Norte 0 1013.9 -0.8 79
2017-09-03 01:00:00 24.3 20 Norte 30 Norte 0 1014 -0.2 81
2017-09-03 00:00:00 24.6 18 Norte 24 Norte 0 1014.5 1.3 76
2017-09-02 23:00:00 24.8 18 Norte 26 Norte 0 1014.7 1.9 73
2017-09-02 22:00:00 25 21 Norte 30 Norte 0 1014.2 1.9 71
2017-09-02 21:00:00 25.1 22 Norte 32 Norte 0 1013.2 0.7 71
2017-09-02 20:00:00 25.5 20 Norte 28 Norte 0 1012.8 0.1 70
2017-09-02 19:00:00 25.4 22 Nordeste 30 Nordeste 0 1012.3 0 74
2017-09-02 18:00:00 25.6 15 Nordeste 22 Nordeste 0 1012.5 -0.3 74
2017-09-02 17:00:00 26.1 17 Nordeste 30 Nordeste 0 1012.7 -0.6 69
2017-09-02 16:00:00 26.9 23 Nordeste 32 Nordeste 0 1012.3 -1.2 67
2017-09-02 15:00:00 26.4 22 Nordeste 30 Este 0 1012.8 -1.2 71
2017-09-02 14:00:00 26.7 19 Nordeste 28 Nordeste 0 1013.3 -0.5 67
2017-09-02 13:00:00 26.2 21 Nordeste 26 Nordeste 0 1013.5 -0.1 67
2017-09-02 12:00:00 25.4 19 Nordeste 30 Nordeste 0 1014 0.7 68
2017-09-02 11:00:00 25 21 Norte 28 Norte 0 1013.8 1.1 67
2017-09-02 10:00:00 24.1 19 Norte 28 Norte 0 1013.6 1.2 70
2017-09-02 09:00:00 23.6 20 Norte 30 Nordeste 0 1013.3 1 73
2017-09-02 08:00:00 23.3 20 Norte 28 Norte 0 1012.7 0.6 75
2017-09-02 07:00:00 23.3 21 Norte 30 Norte 0 1012.4 -0.3 74
2017-09-02 06:00:00 23.3 24 Norte 33 Norte 0 1012.3 -1 76
2017-09-02 05:00:00 23.4 26 Norte 33 Norte 0 1012.1 -1.7 74
2017-09-02 04:00:00 23.4 22 Norte 33 Norte 0 1012.7 -1.6 73
2017-09-02 03:00:00 23.4 21 Norte 30 Norte 0 1013.3 -1 74
2017-09-02 02:00:00 23.4 22 Norte 32 Norte 0 1013.8 -0.2 75
2017-09-02 01:00:00 23.3 24 Norte 35 Norte 0 1014.3 0.8 75
2017-09-02 00:00:00 22.9 22 Norte 32 Norte 0 1014.3 1.3 77
2017-09-01 23:00:00 23.2 22 Norte 35 Norte 0 1014 1.6 75
2017-09-01 22:00:00 23.5 24 Norte 33 Norte 0 1013.5 1 73
2017-09-01 21:00:00 23.8 27 Norte 42 Norte 0 1013 0.7 71
2017-09-01 20:00:00 24.9 30 Norte 39 Norte 0 1012.4 0.3 66
2017-09-01 19:00:00 26 31 Norte 52 Noroeste 0 1012.5 0.4 61
2017-09-01 18:00:00 26.4 28 Norte 42 Norte 0 1012.3 -0.2 61
2017-09-01 17:00:00 27.2 32 Norte 42 Norte 0 1012.1 -0.9 59
2017-09-01 16:00:00 27.5 31 Norte 45 Norte 0 1012.1 -1.4 56
2017-09-01 15:00:00 27.6 29 Norte 48 Norte 0 1012.5 -1.5 54
2017-09-01 14:00:00 27.5 27 Nordeste 37 Nordeste 0 1013 -0.9 59
2017-09-01 13:00:00 26.8 27 Nordeste 37 Norte 0 1013.5 -0.1 63
2017-09-01 12:00:00 25.9 24 Nordeste 41 Nordeste 0 1014 1.2 65
2017-09-01 11:00:00 25.5 25 Norte 41 Norte 0 1013.9 1.4 64
2017-09-01 10:00:00 25.4 28 Norte 41 Norte 0 1013.6 1.4 63
2017-09-01 09:00:00 23.7 27 Norte 39 Norte 0 1012.8 1.1 69
2017-09-01 08:00:00 22.9 23 Norte 37 Norte 0 1012.5 0.7 75
2017-09-01 07:00:00 23 27 Norte 37 Norte 0 1012.2 0.1 76
2017-09-01 06:00:00 22.6 26 Norte 39 Norte 0 1011.7 -0.5 76
2017-09-01 05:00:00 23 27 Norte 35 Norte 0 1011.8 -0.9 76
2017-09-01 04:00:00 22.9 26 Norte 37 Norte 0 1012.1 -1.1 73
2017-09-01 03:00:00 23.2 24 Norte 41 Norte 0 1012.2 -0.9 77
2017-09-01 02:00:00 23.1 30 Norte 42 Norte 0 1012.7 -0.4 75
2017-09-01 01:00:00 23.3 29 Norte 46 Norte 0 1013.2 0.6 75
2017-09-01 00:00:00 23.8 27 Norte 48 Norte 0 1013.1 1.2 75
2017-08-31 23:00:00 24 35 Norte 52 Norte 0 1013.1 1.9 74
2017-08-31 22:00:00 24.1 38 Norte 55 Norte 0 1012.6 1.5 72
2017-08-31 21:00:00 24.2 37 Norte 59 Norte 0 1011.9 0.9 70
2017-08-31 20:00:00 25.2 43 Norte 55 Norte 0 1011.2 0.4 66
2017-08-31 19:00:00 26.6 39 Norte 58 Norte 0 1011.1 0.3 58
2017-08-31 18:00:00 27.8 45 Norte 58 Norte 0 1011 0.1 53
2017-08-31 17:00:00 28.9 38 Norte 55 Norte 0 1010.8 -0.7 49
2017-08-31 16:00:00 29 35 Norte 55 Norte 0 1010.8 -1.1 50
2017-08-31 15:00:00 29.1 36 Norte 58 Norte 0 1010.9 -1.6 49
2017-08-31 14:00:00 27.9 37 Norte 48 Norte 0 1011.5 -0.9 57
2017-08-31 13:00:00 28.1 36 Nordeste 48 Nordeste 0 1011.9 -0.2 56
2017-08-31 12:00:00 27.4 36 Nordeste 50 Nordeste 0 1012.5 0.8 58
2017-08-31 11:00:00 26.9 36 Nordeste 52 Norte 0 1012.4 1.4 60
2017-08-31 10:00:00 25.2 33 Norte 48 Norte 0 1012.1 1.4 65
2017-08-31 09:00:00 23.9 34 Norte 45 Norte 0 1011.7 1.1 71
2017-08-31 08:00:00 23.4 26 Norte 42 Norte 0 1011 0.5 73
2017-08-31 07:00:00 23.3 30 Norte 41 Norte 0 1010.7 -0.1 72
2017-08-31 06:00:00 22.9 24 Norte 35 Norte 0 1010.6 -0.6 74
2017-08-31 05:00:00 22.9 26 Norte 35 Norte 0 1010.5 -1.2 74
2017-08-31 04:00:00 23.5 32 Norte 42 Norte 0 1010.8 -1.2 75
2017-08-31 03:00:00 23.3 26 Norte 41 Norte 0 1011.2 -1.3 76
2017-08-31 02:00:00 23.6 33 Norte 52 Norte 0 1011.7 -1.3 77
2017-08-31 01:00:00 23.6 34 Norte 46 Norte 0 1012 -0.8 76
2017-08-31 00:00:00 23.5 36 Norte 55 Norte 0 1012.5 0.2 75
2017-08-30 23:00:00 23.7 35 Norte 50 Norte 0 1013 1 74
2017-08-30 22:00:00 24 35 Norte 54 Norte 0 1012.8 1.1 72
2017-08-30 21:00:00 24.6 34 Norte 50 Norte 0 1012.3 0.4 71
2017-08-30 20:00:00 25.6 33 Norte 50 Norte 0 1012 0 67
2017-08-30 19:00:00 27.1 40 Norte 50 Nordeste 0 1011.7 -0.7 60
2017-08-30 18:00:00 27.8 35 Norte 46 Nordeste 0 1011.9 -0.9 56
2017-08-30 17:00:00 27.7 30 Nordeste 37 Nordeste 0 1012 -1.1 60
2017-08-30 16:00:00 27.3 26 Nordeste 35 Nordeste 0 1012.4 -1.1 65
2017-08-30 15:00:00 26.8 30 Nordeste 37 Nordeste 0 1012.8 -1 66
2017-08-30 14:00:00 27.2 30 Nordeste 37 Nordeste 0 1013.1 -0.8 65
2017-08-30 13:00:00 27 26 Nordeste 39 Nordeste 0 1013.5 0 66
2017-08-30 12:00:00 27.7 30 Nordeste -- -- -- 1013.8 0.5 59
2017-08-30 11:00:00 26.7 32 Nordeste 48 Norte 0 1013.9 1 62
2017-08-30 10:00:00 25.4 36 Norte 46 Norte 0 1013.5 0.9 64
2017-08-30 09:00:00 24 32 Norte 45 Norte 0 1013.3 1.1 73
2017-08-30 08:00:00 22.6 27 Norte 37 Norte 0 1012.9 0.6 77
2017-08-30 07:00:00 22.6 24 Norte 35 Norte 0 1012.6 0 79
2017-08-30 06:00:00 22.7 24 Norte 35 Norte 0 1012.2 -0.8 79
2017-08-30 05:00:00 22.7 22 Norte 33 Norte 0 1012.3 -1 78
2017-08-30 04:00:00 22.9 25 Norte 35 Norte 0 1012.6 -1.1 77
2017-08-30 03:00:00 23.2 25 Norte 37 Norte 0 1013 -0.8 76
2017-08-30 02:00:00 23.8 27 Norte 39 Norte 0 1013.3 -0.5 75
2017-08-30 01:00:00 23.4 21 Norte 33 Norte 0 1013.7 0.3 75
2017-08-30 00:00:00 23.5 27 Norte 35 Norte 0 1013.8 0.7 74
2017-08-29 23:00:00 23.7 23 Norte 37 Norte 0 1013.8 1.1 73
2017-08-29 22:00:00 24.1 26 Norte 37 Norte 0 1013.4 1.1 71
2017-08-29 21:00:00 24.6 26 Norte 39 Noroeste 0 1013.1 0.7 68
2017-08-29 20:00:00 25.4 31 Norte 42 Norte 0 1012.7 0.2 64
2017-08-29 19:00:00 27.1 31 Norte 41 Norte 0 1012.3 -0.5 58
2017-08-29 18:00:00 27.6 31 Nordeste 42 Norte 0 1012.4 -0.8 57
2017-08-29 17:00:00 28 29 Nordeste 46 Norte 0 1012.5 -1.3 56
2017-08-29 16:00:00 26.9 25 Nordeste 35 Nordeste 0 1012.8 -1.6 66
2017-08-29 15:00:00 27.4 27 Nordeste 39 Nordeste 0 1013.2 -1.4 65
2017-08-29 14:00:00 26.7 26 Nordeste 33 Nordeste 0 1013.8 -0.9 65
2017-08-29 13:00:00 26.6 22 Nordeste 32 Nordeste 0 1014.4 0.3 65
2017-08-29 12:00:00 26.2 23 Nordeste 33 Nordeste 0 1014.6 0.9 64
2017-08-29 11:00:00 25.7 26 Norte 39 Nordeste 0 1014.7 1.2 64
2017-08-29 10:00:00 24.9 27 Nordeste 41 Norte 0 1014.1 0.7 69
2017-08-29 09:00:00 23.2 25 Norte 33 Norte 0 1013.7 0.4 77
2017-08-29 08:00:00 21.5 18 Norte 32 Norte 0 1013.5 0.3 79
2017-08-29 07:00:00 21.3 19 Norte 24 Norte 0 1013.4 -0.2 79
2017-08-29 06:00:00 21.5 18 Norte 26 Norte 0 1013.3 -0.7 78
2017-08-29 05:00:00 21.8 14 Norte 26 Norte 0 1013.2 -1.4 77
2017-08-29 04:00:00 22.4 18 Norte 26 Norte 0 1013.6 -1.5 80
2017-08-29 03:00:00 22.6 17 Norte 22 Norte 0 1014 -1.5 79
2017-08-29 02:00:00 22.6 18 Norte 28 Norte 0 1014.6 -0.7 76
2017-08-29 01:00:00 23 24 Norte 32 Norte 0 1015.1 0.1 77
2017-08-29 00:00:00 23.4 22 Norte 32 Norte 0 1015.5 1 76
2017-08-28 23:00:00 23.6 23 Norte 35 Norte 0 1015.3 1.1 74
2017-08-28 22:00:00 24 27 Norte 35 Norte 0 1015 0.8 71
2017-08-28 21:00:00 24.2 26 Nordeste 35 Nordeste 0 1014.5 0.5 78
2017-08-28 20:00:00 24.6 26 Nordeste 32 Nordeste 0 1014.2 0 75
2017-08-28 19:00:00 25.3 27 Nordeste 33 Nordeste 0 1014.2 0.1 71
2017-08-28 18:00:00 25.9 26 Nordeste 32 Nordeste 0 1014 -0.4 69
2017-08-28 17:00:00 26.4 27 Nordeste 33 Nordeste 0 1014.2 -0.8 68
2017-08-28 16:00:00 26.7 27 Nordeste 39 Nordeste 0 1014.1 -1.1 65
2017-08-28 15:00:00 26.9 28 Nordeste 35 Nordeste 0 1014.4 -0.7 64
2017-08-28 14:00:00 26.8 27 Nordeste 35 Nordeste 0 1015 -0.2 64
2017-08-28 13:00:00 26.7 27 Nordeste 37 Nordeste 0 1015.2 0.7 64
2017-08-28 12:00:00 26.4 29 Nordeste 37 Nordeste 0 1015.1 1.2 67
2017-08-28 11:00:00 25.9 22 Nordeste 39 Nordeste 0 1015.2 1.7 68
2017-08-28 10:00:00 25.1 32 Nordeste 41 Norte 0 1014.5 1.2 71
2017-08-28 09:00:00 23.9 31 Norte 37 Nordeste 0 1013.9 0.7 76
2017-08-28 08:00:00 22.9 20 Norte 35 Norte 0 1013.5 -0.2 80
2017-08-28 07:00:00 23 17 Norte 26 Norte 0 1013.3 -0.8 82
2017-08-28 06:00:00 23.3 17 Nordeste 24 Norte 0 1013.2 -0.3 80
2017-08-28 05:00:00 23.4 15 Nordeste 21 Nordeste 0 1013.7 0 80
2017-08-28 04:00:00 23.5 13 Nordeste 26 Nordeste 0 1014.1 0.1 79
2017-08-28 03:00:00 23.5 22 Nordeste 37 Nordeste 0 1013.5 -0.5 79
2017-08-28 02:00:00 23.5 27 Nordeste 35 Norte 0 1013.7 0.5 81
2017-08-28 01:00:00 23.7 25 Nordeste 37 Nordeste 0 1014 1.7 80
2017-08-28 00:00:00 23.8 28 Nordeste 39 Nordeste 0 1014 2.3 77
2017-08-27 23:00:00 24.1 29 Nordeste 39 Nordeste 0 1013.2 1.7 81
2017-08-27 22:00:00 24.6 27 Norte 37 Norte 0 1012.3 0.9 80
2017-08-27 21:00:00 24.6 28 Nordeste 39 Nordeste 0 1011.7 0.4 83
2017-08-27 20:00:00 24.9 30 Nordeste 42 Norte 0 1011.5 0.3 80
2017-08-27 19:00:00 25.2 30 Nordeste 42 Nordeste 0 1011.4 0.5 77
2017-08-27 18:00:00 26.2 31 Nordeste 41 Nordeste 0 1011.3 0.1 73
2017-08-27 17:00:00 26.1 33 Nordeste 45 Nordeste 0 1011.2 -0.7 73
2017-08-27 16:00:00 27.7 32 Nordeste 42 Nordeste 0 1010.9 -1.8 64
2017-08-27 15:00:00 27.3 29 Nordeste 37 Nordeste 0 1011.2 -1.3 67
2017-08-27 14:00:00 27.2 28 Nordeste 37 Nordeste 0 1011.9 -0.1 68
2017-08-27 13:00:00 27.3 25 Nordeste 33 Nordeste 0 1012.7 0.9 69
2017-08-27 12:00:00 27 22 Nordeste 28 Nordeste 0 1012.5 1.1 66
2017-08-27 11:00:00 26.3 21 Nordeste 28 Nordeste 0 1012 1.3 69
2017-08-27 10:00:00 26.2 21 Norte 30 Norte 0 1011.8 1.8 64
2017-08-27 09:00:00 24.6 21 Norte 33 Norte 0 1011.4 1.4 71
2017-08-27 08:00:00 23.8 19 Norte 28 Norte 0 1010.7 0.6 59
2017-08-27 07:00:00 23.8 20 Norte 26 Noroeste 0 1010 -0.3 65
2017-08-27 06:00:00 23.9 13 Norte 32 Norte 0 1010 0 68
2017-08-27 05:00:00 24.3 22 Norte 32 Norte 0 1010.1 0.1 72
2017-08-27 04:00:00 25 23 Norte 30 Norte 0 1010.3 -0.5 62
2017-08-27 03:00:00 25.4 17 Nordeste 26 Norte 0 1010 -0.7 55
2017-08-27 02:00:00 25.2 19 Norte 26 Norte 0 1010 -0.9 45
2017-08-27 01:00:00 24.7 18 Norte 26 Norte 0 1010.8 0.6 70
2017-08-27 00:00:00 24.8 17 Norte 26 Norte 0 1010.7 1.8 73
2017-08-26 23:00:00 25.6 18 Norte 26 Nordeste 0 1010.9 2.4 74
2017-08-26 22:00:00 26.5 17 Norte 26 Norte 0 1010.2 1.9 66
2017-08-26 21:00:00 27.7 15 Noroeste 39 Noroeste 0 1008.9 1.1 63
2017-08-26 20:00:00 29.5 19 Norte 32 Norte 0 1008.5 0.7 49
2017-08-26 19:00:00 30.3 27 Norte 41 Norte 0 1008.3 -0.2 52
2017-08-26 18:00:00 31.9 34 Norte 45 Norte 0 1007.8 -1.6 42
2017-08-26 17:00:00 28.5 14 Nordeste 28 Nordeste 0 1007.8 -2.1 69
2017-08-26 16:00:00 27.5 23 Nordeste 32 Nordeste 0 1008.5 -2.2 73
2017-08-26 15:00:00 27.4 21 Nordeste 30 Norte 0 1009.4 -1 72
2017-08-26 14:00:00 27.4 20 Nordeste 30 Nordeste 0 1009.9 0.4 73
2017-08-26 13:00:00 27.5 25 Nordeste 41 Nordeste 0 1010.7 1.1 71
2017-08-26 12:00:00 28 32 Nordeste 41 Nordeste 0 1010.4 0.8 69
2017-08-26 11:00:00 28.5 11 Noroeste 39 Noroeste 0 1009.5 0.3 56
2017-08-26 10:00:00 25.6 0 Calma 26 Sudoeste 0 1009.6 0.1 74
2017-08-26 09:00:00 24.8 14 Sudoeste 37 Noroeste 0 1009.6 0.4 76
2017-08-26 08:00:00 23.6 23 Noroeste 35 Oeste 0 1009.2 -0.2 82
2017-08-26 07:00:00 23.8 9 Noroeste 21 Noroeste 0 1009.5 -0.3 85
2017-08-26 06:00:00 24.1 3 Sur 15 Sur 0 1009.2 -0.8 86
2017-08-26 05:00:00 24.1 9 Sur 13 Sur 0 1009.4 -1.2 84
2017-08-26 04:00:00 24.4 3 Sur 8 Oeste 0 1009.8 -1 83
2017-08-26 03:00:00 24.5 5 Sudoeste 8 Oeste 0 1010 -0.4 85
2017-08-26 02:00:00 25.3 4 Sudeste 11 Sudeste 0 1010.6 0.3 85
2017-08-26 01:00:00 25.5 4 Sudeste 35 Oeste 0 1010.8 1.3 87
2017-08-26 00:00:00 25.9 0 Calma 13 Noroeste 0 1010.4 1.3 84
2017-08-25 23:00:00 26.6 8 Este 26 Noroeste 0 1010.3 1.7 76
2017-08-25 22:00:00 26.6 23 Noroeste 37 Oeste 0 1009.5 0.8 74
2017-08-25 21:00:00 26.3 4 Sur 13 Sur 0 1009.1 0.5 81
2017-08-25 20:00:00 26.5 6 Sudeste 9 Sudeste 0 1008.6 -0.2 79
2017-08-25 19:00:00 27.1 3 Nordeste 13 Nordeste 0 1008.7 -0.1 79
2017-08-25 18:00:00 28 6 Nordeste 15 Sudeste 0 1008.6 -0.9 71
2017-08-25 17:00:00 27.1 7 Sudeste 15 Este 0 1008.8 -1.4 79
2017-08-25 16:00:00 27.1 10 Este 21 Nordeste 0 1008.8 -1.7 78
2017-08-25 15:00:00 27.1 13 Nordeste 18 Este 0 1009.5 -1.5 78
2017-08-25 14:00:00 26.9 8 Este 21 Este 0 1010.2 -0.1 77
2017-08-25 13:00:00 27.1 15 Nordeste 22 Nordeste 0 1010.5 1.3 77
2017-08-25 12:00:00 26.4 10 Este 22 Sudeste 0 1011 2.4 82
2017-08-25 11:00:00 26.4 16 Sudeste 30 Sur 0 1010.3 1.6 81
2017-08-25 10:00:00 25.7 3 Oeste 21 Noroeste 0 1009.2 1 83
2017-08-25 09:00:00 24.7 5 Sudeste 21 Oeste 0 1008.6 0.1 86
2017-08-25 08:00:00 24.2 2 Este 21 Sudeste 0 1008.7 1.2 89
2017-08-25 07:00:00 24 7 Sur 15 Sudoeste 0 1008.2 -0.5 87
2017-08-25 06:00:00 23.9 9 Norte 26 Este 0 1008.5 -0.8 90
2017-08-25 05:00:00 24 9 Norte 15 Noroeste 0 1007.5 -2.8 88
2017-08-25 04:00:00 23.9 10 Norte 17 Nordeste 0 1008.7 -2 88
2017-08-25 03:00:00 24 11 Norte 22 Norte 0 1009.3 -1.1 87
2017-08-25 02:00:00 24.2 12 Norte 21 Norte 0 1010.3 0.3 87
2017-08-25 01:00:00 24.4 11 Nordeste 21 Norte 0 1010.7 1.4 86
2017-08-25 00:00:00 24.6 15 Norte 22 Norte 0 1010.4 2 85
2017-08-24 23:00:00 24.6 14 Norte 21 Norte 0 1010 2.4 84
2017-08-24 22:00:00 24.6 13 Norte 26 Norte 0 1009.3 1.3 86
2017-08-24 21:00:00 24.7 21 Norte 26 Norte 0 1008.4 -0.2 86
2017-08-24 20:00:00 25.5 19 Nordeste 26 Nordeste 0 1007.6 -1 81
2017-08-24 19:00:00 26.6 14 Norte 22 Norte 0 1008 -0.8 74
2017-08-24 18:00:00 26.9 12 Nordeste 22 Nordeste 0 1008.6 -0.4 76
2017-08-24 17:00:00 27.4 13 Nordeste 24 Nordeste 0 1008.6 -0.2 74
2017-08-24 16:00:00 27.8 14 Nordeste 21 Nordeste 0 1008.8 -0.9 72
2017-08-24 15:00:00 28.1 13 Este 24 Nordeste 0 1009 -0.8 70
2017-08-24 14:00:00 29.3 19 Nordeste 32 Nordeste 0 1008.8 -0.4 62
2017-08-24 13:00:00 28.5 10 Nordeste 18 Nordeste 0 1009.7 1 64
2017-08-24 12:00:00 28 10 Sudeste 26 Nordeste 0 1009.8 1.2 68
2017-08-24 11:00:00 27.6 18 Nordeste 32 Nordeste 0 1009.2 0.5 67
2017-08-24 10:00:00 26.9 23 Norte 30 Norte 0 1008.7 -0.1 69
2017-08-24 09:00:00 25 10 Norte 18 Norte 0 1008.6 0 74
2017-08-24 08:00:00 22.7 5 Oeste 22 Oeste 0 1008.7 1 84
2017-08-24 07:00:00 23.3 2 Norte 15 Nordeste 0 1008.8 1.1 83
2017-08-24 06:00:00 23.8 9 Nordeste 22 Norte 0 1008.6 0.9 82
2017-08-24 05:00:00 23.5 14 Norte 18 Norte 0 1007.7 -0.3 72
2017-08-24 04:00:00 23.3 7 Norte 17 Norte 0 1007.7 -1.6 74
2017-08-24 03:00:00 23.6 13 Norte 22 Norte 0 1007.7 -1.9 86
2017-08-24 02:00:00 23.6 17 Norte 30 Norte 0 1008 -1.7 84
2017-08-24 01:00:00 23.6 20 Norte 35 Nordeste 0 1009.3 0.4 89
2017-08-24 00:00:00 23.8 26 Norte 37 Nordeste 0 1009.6 2.2 88
2017-08-23 23:00:00 24.2 17 Nordeste 26 Norte 0 1009.7 2.4 86
2017-08-23 22:00:00 24.7 20 Nordeste 35 Nordeste 0 1008.9 1.5 84
2017-08-23 21:00:00 24.7 15 Nordeste 32 Norte 0 1007.4 -0.2 84
2017-08-23 20:00:00 25.1 22 Nordeste 35 Nordeste 0 1007.3 -1 82
2017-08-23 19:00:00 26.1 13 Norte 24 Nordeste 0 1007.4 -0.8 78
2017-08-23 18:00:00 26.1 19 Nordeste 32 Norte 0 1007.6 -1.6 76
2017-08-23 17:00:00 26.4 24 Norte 33 Nordeste 0 1008.3 -1.3 73
2017-08-23 16:00:00 26.6 26 Norte 42 Nordeste 0 1008.2 -1.8 72
2017-08-23 15:00:00 26.7 27 Nordeste 41 Nordeste 0 1009.2 -1.1 71
2017-08-23 14:00:00 26.7 27 Nordeste 35 Nordeste 0 1009.6 -0.6 72
2017-08-23 13:00:00 26.2 27 Nordeste 35 Nordeste 0 1010 0.4 74
2017-08-23 12:00:00 26.1 29 Nordeste 39 Nordeste 0 1010.3 1.3 74
2017-08-23 11:00:00 25.6 28 Nordeste 39 Nordeste 0 1010.2 1.2 76
2017-08-23 10:00:00 25.1 28 Nordeste 35 Nordeste 0 1009.6 1.2 79
2017-08-23 09:00:00 24.5 17 Norte 24 Norte 0 1009 1.4 80
2017-08-23 08:00:00 23.9 18 Nordeste 24 Nordeste 0 1009 1.4 83
2017-08-23 07:00:00 24.2 13 Nordeste 22 Nordeste 0 1008.4 0.6 79
2017-08-23 06:00:00 25.1 16 Nordeste 33 Norte 0 1007.6 -0.5 67
2017-08-23 05:00:00 26.9 22 Norte 30 Norte 0 1007.6 -1.4 44
2017-08-23 04:00:00 28.4 19 Norte 35 Norte 0 1007.8 -1.7 33
2017-08-23 03:00:00 28.2 25 Norte 33 Norte 0 1008.1 -1.8 30
2017-08-23 02:00:00 28.1 23 Norte 28 Norte 0 1009 -0.7 30
2017-08-23 01:00:00 27.4 19 Norte 28 Norte 0 1009.5 0.3 37
2017-08-23 00:00:00 26.1 15 Norte 22 Norte 0 1009.9 1.2 59
2017-08-22 23:00:00 26.4 11 Nordeste 18 Norte 0 1009.7 1.5 70
2017-08-22 22:00:00 28.9 12 Norte 26 Norte 0 1009.2 1.2 45
2017-08-22 21:00:00 30.3 18 Norte 28 Norte 0 1008.7 0.7 38
2017-08-22 20:00:00 31.7 25 Norte 33 Norte 0 1008.2 -0.2 34
2017-08-22 19:00:00 33.9 26 Norte 41 Norte 0 1008 -1 29
2017-08-22 18:00:00 34.1 28 Norte 39 Norte 0 1008 -1.7 29
2017-08-22 17:00:00 31.9 24 Nordeste 35 Nordeste 0 1008.4 -2.1 47
2017-08-22 16:00:00 30.3 17 Nordeste 35 Nordeste 0 1009 -2.1 58
2017-08-22 15:00:00 29.8 25 Norte 35 Norte 0 1009.7 -2 51
2017-08-22 14:00:00 30.2 24 Nordeste 33 Nordeste 0 1010.5 -0.7 48
2017-08-22 13:00:00 29.4 17 Nordeste 26 Nordeste 0 1011.1 0 48
2017-08-22 12:00:00 29.4 14 Nordeste 24 Nordeste 0 1011.7 1.4 50
2017-08-22 11:00:00 27.8 14 Nordeste 24 Nordeste 0 1011.2 0.9 61
2017-08-22 10:00:00 26.7 4 Este 11 Este 0 1011.1 1.3 70
2017-08-22 09:00:00 25.5 9 Norte 18 Norte 0 1010.3 1 70
2017-08-22 08:00:00 24.6 13 Norte 18 Norte 0 1010.3 0.9 73
2017-08-22 07:00:00 25 4 Norte 26 Norte 0 1009.8 -0.1 49
2017-08-22 06:00:00 25.7 19 Norte 32 Norte 0 1009.3 -1.1 49
2017-08-22 05:00:00 24.8 16 Norte 22 Norte 0 1009.4 -1.5 49
2017-08-22 04:00:00 24.4 18 Norte 26 Norte 0 1009.9 -1.5 57
2017-08-22 03:00:00 24 21 Norte 26 Norte 0 1010.4 -1.6 78
2017-08-22 02:00:00 24.1 22 Norte 30 Norte 0 1010.9 -0.6 80
2017-08-22 01:00:00 24.3 21 Norte 30 Norte 0 1011.4 0.7 74
2017-08-22 00:00:00 24.5 18 Nordeste 26 Nordeste 0 1012 1.9 73